sensor_id;sensor_type;location;lat;lon;timestamp;P1;durP1;ratioP1;P2;durP2;ratioP2
966;SDS011;56108;48.730;9.304;2022-07-23T00:01:38;8.40;;;7.80;;
966;SDS011;56108;48.730;9.304;2022-07-23T00:03:49;8.48;;;7.88;;
966;SDS011;56108;48.730;9.304;2022-07-23T00:05:58;8.48;;;7.82;;
966;SDS011;56108;48.730;9.304;2022-07-23T00:08:12;8.20;;;7.60;;
966;SDS011;56108;48.730;9.304;2022-07-23T00:10:21;8.15;;;7.53;;
966;SDS011;56108;48.730;9.304;2022-07-23T00:12:29;7.88;;;7.20;;
966;SDS011;56108;48.730;9.304;2022-07-23T00:14:37;8.68;;;8.07;;
966;SDS011;56108;48.730;9.304;2022-07-23T00:16:48;7.55;;;6.95;;
966;SDS011;56108;48.730;9.304;2022-07-23T00:18:59;7.82;;;7.22;;
966;SDS011;56108;48.730;9.304;2022-07-23T00:21:08;7.70;;;7.10;;
966;SDS011;56108;48.730;9.304;2022-07-23T00:23:16;7.53;;;6.93;;
966;SDS011;56108;48.730;9.304;2022-07-23T00:25:26;6.60;;;6.20;;
966;SDS011;56108;48.730;9.304;2022-07-23T00:27:35;6.95;;;6.47;;
966;SDS011;56108;48.730;9.304;2022-07-23T00:29:44;6.10;;;5.70;;
966;SDS011;56108;48.730;9.304;2022-07-23T00:31:52;6.97;;;6.40;;
966;SDS011;56108;48.730;9.304;2022-07-23T00:34:04;6.70;;;6.20;;
966;SDS011;56108;48.730;9.304;2022-07-23T00:36:12;6.97;;;6.43;;
966;SDS011;56108;48.730;9.304;2022-07-23T00:38:21;6.22;;;5.72;;
966;SDS011;56108;48.730;9.304;2022-07-23T00:40:30;6.72;;;6.22;;
966;SDS011;56108;48.730;9.304;2022-07-23T00:42:39;7.35;;;6.80;;
966;SDS011;56108;48.730;9.304;2022-07-23T00:44:47;7.30;;;6.75;;
966;SDS011;56108;48.730;9.304;2022-07-23T00:46:56;6.60;;;6.07;;
966;SDS011;56108;48.730;9.304;2022-07-23T00:49:10;6.47;;;5.97;;
966;SDS011;56108;48.730;9.304;2022-07-23T00:51:18;7.53;;;6.18;;
966;SDS011;56108;48.730;9.304;2022-07-23T00:53:27;6.03;;;5.57;;
966;SDS011;56108;48.730;9.304;2022-07-23T00:55:36;6.28;;;5.88;;
966;SDS011;56108;48.730;9.304;2022-07-23T00:57:45;5.68;;;5.28;;
966;SDS011;56108;48.730;9.304;2022-07-23T00:59:53;6.13;;;5.57;;
966;SDS011;56108;48.730;9.304;2022-07-23T01:02:02;6.38;;;5.97;;
966;SDS011;56108;48.730;9.304;2022-07-23T01:04:13;5.63;;;5.22;;
966;SDS011;56108;48.730;9.304;2022-07-23T01:06:22;5.97;;;5.57;;
966;SDS011;56108;48.730;9.304;2022-07-23T01:08:30;5.57;;;5.18;;
966;SDS011;56108;48.730;9.304;2022-07-23T01:10:39;5.30;;;5.00;;
966;SDS011;56108;48.730;9.304;2022-07-23T01:12:48;6.05;;;5.55;;
966;SDS011;56108;48.730;9.304;2022-07-23T01:14:56;5.53;;;5.03;;
966;SDS011;56108;48.730;9.304;2022-07-23T01:17:06;6.18;;;5.68;;
966;SDS011;56108;48.730;9.304;2022-07-23T01:19:17;5.35;;;4.93;;
966;SDS011;56108;48.730;9.304;2022-07-23T01:21:26;5.80;;;5.40;;
966;SDS011;56108;48.730;9.304;2022-07-23T01:23:37;6.32;;;5.72;;
966;SDS011;56108;48.730;9.304;2022-07-23T01:25:48;5.38;;;5.00;;
966;SDS011;56108;48.730;9.304;2022-07-23T01:27:58;5.90;;;5.40;;
966;SDS011;56108;48.730;9.304;2022-07-23T01:30:07;6.05;;;5.55;;
966;SDS011;56108;48.730;9.304;2022-07-23T01:32:16;6.20;;;5.75;;
966;SDS011;56108;48.730;9.304;2022-07-23T01:34:26;6.45;;;5.95;;
966;SDS011;56108;48.730;9.304;2022-07-23T01:36:34;5.88;;;5.47;;
966;SDS011;56108;48.730;9.304;2022-07-23T01:38:49;5.70;;;5.30;;
966;SDS011;56108;48.730;9.304;2022-07-23T01:40:58;6.55;;;6.10;;
966;SDS011;56108;48.730;9.304;2022-07-23T01:43:09;6.38;;;5.88;;
966;SDS011;56108;48.730;9.304;2022-07-23T01:45:19;5.90;;;5.50;;
966;SDS011;56108;48.730;9.304;2022-07-23T01:47:29;6.47;;;5.97;;
966;SDS011;56108;48.730;9.304;2022-07-23T01:49:37;6.72;;;6.25;;
966;SDS011;56108;48.730;9.304;2022-07-23T01:51:51;6.40;;;6.00;;
966;SDS011;56108;48.730;9.304;2022-07-23T01:54:20;6.68;;;6.18;;
966;SDS011;56108;48.730;9.304;2022-07-23T01:56:28;10.52;;;6.60;;
966;SDS011;56108;48.730;9.304;2022-07-23T01:58:36;6.40;;;5.93;;
966;SDS011;56108;48.730;9.304;2022-07-23T02:00:45;6.65;;;6.18;;
966;SDS011;56108;48.730;9.304;2022-07-23T02:02:53;6.70;;;6.10;;
966;SDS011;56108;48.730;9.304;2022-07-23T02:05:05;7.13;;;6.63;;
966;SDS011;56108;48.730;9.304;2022-07-23T02:07:14;6.50;;;6.10;;
966;SDS011;56108;48.730;9.304;2022-07-23T02:09:27;6.90;;;6.40;;
966;SDS011;56108;48.730;9.304;2022-07-23T02:11:36;7.07;;;6.40;;
966;SDS011;56108;48.730;9.304;2022-07-23T02:13:46;6.80;;;6.30;;
966;SDS011;56108;48.730;9.304;2022-07-23T02:15:54;7.00;;;6.50;;
966;SDS011;56108;48.730;9.304;2022-07-23T02:18:02;7.32;;;6.82;;
966;SDS011;56108;48.730;9.304;2022-07-23T02:20:13;7.30;;;6.70;;
966;SDS011;56108;48.730;9.304;2022-07-23T02:22:21;6.90;;;6.30;;
966;SDS011;56108;48.730;9.304;2022-07-23T02:24:32;6.32;;;5.80;;
966;SDS011;56108;48.730;9.304;2022-07-23T02:26:40;7.35;;;6.75;;
966;SDS011;56108;48.730;9.304;2022-07-23T02:28:49;7.80;;;7.10;;
966;SDS011;56108;48.730;9.304;2022-07-23T02:30:59;6.35;;;5.85;;
966;SDS011;56108;48.730;9.304;2022-07-23T02:33:08;6.88;;;6.28;;
966;SDS011;56108;48.730;9.304;2022-07-23T02:35:17;7.22;;;6.53;;
966;SDS011;56108;48.730;9.304;2022-07-23T02:37:27;7.40;;;6.82;;
966;SDS011;56108;48.730;9.304;2022-07-23T02:39:38;7.35;;;6.65;;
966;SDS011;56108;48.730;9.304;2022-07-23T02:41:47;7.30;;;6.80;;
966;SDS011;56108;48.730;9.304;2022-07-23T02:43:55;6.40;;;5.95;;
966;SDS011;56108;48.730;9.304;2022-07-23T02:46:04;7.07;;;6.57;;
966;SDS011;56108;48.730;9.304;2022-07-23T02:48:18;6.60;;;6.15;;
966;SDS011;56108;48.730;9.304;2022-07-23T02:50:26;6.97;;;6.47;;
966;SDS011;56108;48.730;9.304;2022-07-23T02:52:36;8.23;;;7.63;;
966;SDS011;56108;48.730;9.304;2022-07-23T02:54:47;6.80;;;6.30;;
966;SDS011;56108;48.730;9.304;2022-07-23T02:56:55;7.18;;;6.65;;
966;SDS011;56108;48.730;9.304;2022-07-23T02:59:03;7.97;;;7.38;;
966;SDS011;56108;48.730;9.304;2022-07-23T03:01:12;8.07;;;7.32;;
966;SDS011;56108;48.730;9.304;2022-07-23T03:03:24;7.00;;;6.50;;
966;SDS011;56108;48.730;9.304;2022-07-23T03:05:34;6.70;;;6.18;;
966;SDS011;56108;48.730;9.304;2022-07-23T03:07:42;7.50;;;6.90;;
966;SDS011;56108;48.730;9.304;2022-07-23T03:09:53;7.38;;;6.78;;
966;SDS011;56108;48.730;9.304;2022-07-23T03:12:01;7.68;;;7.07;;
966;SDS011;56108;48.730;9.304;2022-07-23T03:14:17;7.60;;;6.97;;
966;SDS011;56108;48.730;9.304;2022-07-23T03:16:25;6.78;;;6.00;;
966;SDS011;56108;48.730;9.304;2022-07-23T03:18:33;6.65;;;6.13;;
966;SDS011;56108;48.730;9.304;2022-07-23T03:20:44;7.03;;;6.53;;
966;SDS011;56108;48.730;9.304;2022-07-23T03:22:52;7.30;;;6.78;;
966;SDS011;56108;48.730;9.304;2022-07-23T03:25:03;7.50;;;7.00;;
966;SDS011;56108;48.730;9.304;2022-07-23T03:27:13;6.70;;;6.20;;
966;SDS011;56108;48.730;9.304;2022-07-23T03:29:21;7.82;;;7.22;;
966;SDS011;56108;48.730;9.304;2022-07-23T03:31:29;8.15;;;7.35;;
966;SDS011;56108;48.730;9.304;2022-07-23T03:33:38;7.53;;;6.95;;
966;SDS011;56108;48.730;9.304;2022-07-23T03:35:47;7.50;;;6.97;;
966;SDS011;56108;48.730;9.304;2022-07-23T03:38:02;7.65;;;7.05;;
966;SDS011;56108;48.730;9.304;2022-07-23T03:40:13;7.50;;;6.90;;
966;SDS011;56108;48.730;9.304;2022-07-23T03:42:22;8.20;;;7.60;;
966;SDS011;56108;48.730;9.304;2022-07-23T03:44:30;7.93;;;7.32;;
966;SDS011;56108;48.730;9.304;2022-07-23T03:46:39;7.57;;;7.05;;
966;SDS011;56108;48.730;9.304;2022-07-23T03:48:49;7.03;;;6.53;;
966;SDS011;56108;48.730;9.304;2022-07-23T03:51:02;8.82;;;8.02;;
966;SDS011;56108;48.730;9.304;2022-07-23T03:53:11;7.93;;;7.32;;
966;SDS011;56108;48.730;9.304;2022-07-23T03:55:22;7.70;;;7.00;;
966;SDS011;56108;48.730;9.304;2022-07-23T03:57:30;7.72;;;7.13;;
966;SDS011;56108;48.730;9.304;2022-07-23T03:59:39;7.45;;;6.85;;
966;SDS011;56108;48.730;9.304;2022-07-23T04:01:47;7.40;;;6.90;;
966;SDS011;56108;48.730;9.304;2022-07-23T04:03:55;7.75;;;7.15;;
966;SDS011;56108;48.730;9.304;2022-07-23T04:06:05;8.80;;;7.65;;
966;SDS011;56108;48.730;9.304;2022-07-23T04:08:14;8.02;;;7.43;;
966;SDS011;56108;48.730;9.304;2022-07-23T04:10:30;8.00;;;7.22;;
966;SDS011;56108;48.730;9.304;2022-07-23T04:12:40;7.63;;;7.00;;
966;SDS011;56108;48.730;9.304;2022-07-23T04:14:48;7.88;;;7.25;;
966;SDS011;56108;48.730;9.304;2022-07-23T04:16:58;7.85;;;7.15;;
966;SDS011;56108;48.730;9.304;2022-07-23T04:19:06;7.68;;;7.07;;
966;SDS011;56108;48.730;9.304;2022-07-23T04:21:28;8.63;;;7.93;;
966;SDS011;56108;48.730;9.304;2022-07-23T04:23:37;7.90;;;7.20;;
966;SDS011;56108;48.730;9.304;2022-07-23T04:25:47;7.93;;;7.28;;
966;SDS011;56108;48.730;9.304;2022-07-23T04:27:56;7.00;;;6.40;;
966;SDS011;56108;48.730;9.304;2022-07-23T04:30:04;8.07;;;7.47;;
966;SDS011;56108;48.730;9.304;2022-07-23T04:32:14;8.05;;;7.25;;
966;SDS011;56108;48.730;9.304;2022-07-23T04:34:22;8.50;;;7.90;;
966;SDS011;56108;48.730;9.304;2022-07-23T04:36:32;8.68;;;7.20;;
966;SDS011;56108;48.730;9.304;2022-07-23T04:38:40;7.82;;;7.22;;
966;SDS011;56108;48.730;9.304;2022-07-23T04:40:57;8.75;;;8.05;;
966;SDS011;56108;48.730;9.304;2022-07-23T04:43:17;7.85;;;7.20;;
966;SDS011;56108;48.730;9.304;2022-07-23T04:45:27;8.02;;;7.43;;
966;SDS011;56108;48.730;9.304;2022-07-23T04:47:35;8.30;;;7.70;;
966;SDS011;56108;48.730;9.304;2022-07-23T04:49:43;8.40;;;7.80;;
966;SDS011;56108;48.730;9.304;2022-07-23T04:51:52;8.70;;;7.68;;
966;SDS011;56108;48.730;9.304;2022-07-23T04:54:00;9.02;;;8.30;;
966;SDS011;56108;48.730;9.304;2022-07-23T04:56:08;8.40;;;7.70;;
966;SDS011;56108;48.730;9.304;2022-07-23T04:58:19;8.18;;;7.57;;
966;SDS011;56108;48.730;9.304;2022-07-23T05:00:28;8.07;;;7.47;;
966;SDS011;56108;48.730;9.304;2022-07-23T05:02:37;8.50;;;7.90;;
966;SDS011;56108;48.730;9.304;2022-07-23T05:04:47;8.75;;;8.15;;
966;SDS011;56108;48.730;9.304;2022-07-23T05:06:55;8.93;;;8.23;;
966;SDS011;56108;48.730;9.304;2022-07-23T05:09:04;8.77;;;8.07;;
966;SDS011;56108;48.730;9.304;2022-07-23T05:11:12;7.80;;;7.17;;
966;SDS011;56108;48.730;9.304;2022-07-23T05:13:23;8.20;;;7.50;;
966;SDS011;56108;48.730;9.304;2022-07-23T05:15:32;7.90;;;7.30;;
966;SDS011;56108;48.730;9.304;2022-07-23T05:17:41;8.10;;;7.60;;
966;SDS011;56108;48.730;9.304;2022-07-23T05:19:53;9.27;;;8.67;;
966;SDS011;56108;48.730;9.304;2022-07-23T05:22:05;8.50;;;7.93;;
966;SDS011;56108;48.730;9.304;2022-07-23T05:24:14;8.90;;;8.20;;
966;SDS011;56108;48.730;9.304;2022-07-23T05:26:22;8.60;;;8.00;;
966;SDS011;56108;48.730;9.304;2022-07-23T05:28:35;9.03;;;8.33;;
966;SDS011;56108;48.730;9.304;2022-07-23T05:30:45;8.83;;;8.23;;
966;SDS011;56108;48.730;9.304;2022-07-23T05:32:55;8.77;;;8.20;;
966;SDS011;56108;48.730;9.304;2022-07-23T05:35:04;9.20;;;8.50;;
966;SDS011;56108;48.730;9.304;2022-07-23T05:37:17;9.13;;;8.43;;
966;SDS011;56108;48.730;9.304;2022-07-23T05:39:27;10.00;;;9.30;;
966;SDS011;56108;48.730;9.304;2022-07-23T05:41:36;8.40;;;7.80;;
966;SDS011;56108;48.730;9.304;2022-07-23T05:43:49;9.63;;;8.93;;
966;SDS011;56108;48.730;9.304;2022-07-23T05:45:58;8.67;;;7.97;;
966;SDS011;56108;48.730;9.304;2022-07-23T05:48:06;9.70;;;9.00;;
966;SDS011;56108;48.730;9.304;2022-07-23T05:50:24;9.03;;;8.33;;
966;SDS011;56108;48.730;9.304;2022-07-23T05:52:42;8.90;;;8.30;;
966;SDS011;56108;48.730;9.304;2022-07-23T05:55:11;8.80;;;8.20;;
966;SDS011;56108;48.730;9.304;2022-07-23T05:57:21;8.93;;;8.20;;
966;SDS011;56108;48.730;9.304;2022-07-23T05:59:33;9.57;;;8.87;;
966;SDS011;56108;48.730;9.304;2022-07-23T06:01:41;9.23;;;8.43;;
966;SDS011;56108;48.730;9.304;2022-07-23T06:03:52;10.67;;;9.90;;
966;SDS011;56108;48.730;9.304;2022-07-23T06:06:08;8.83;;;8.23;;
966;SDS011;56108;48.730;9.304;2022-07-23T06:08:16;11.13;;;10.00;;
966;SDS011;56108;48.730;9.304;2022-07-23T06:10:25;10.23;;;9.37;;
966;SDS011;56108;48.730;9.304;2022-07-23T06:12:33;10.73;;;9.93;;
966;SDS011;56108;48.730;9.304;2022-07-23T06:14:45;11.03;;;10.13;;
966;SDS011;56108;48.730;9.304;2022-07-23T06:16:54;10.70;;;9.60;;
966;SDS011;56108;48.730;9.304;2022-07-23T06:19:04;10.07;;;9.23;;
966;SDS011;56108;48.730;9.304;2022-07-23T06:21:12;9.75;;;9.05;;
966;SDS011;56108;48.730;9.304;2022-07-23T06:23:40;10.23;;;9.40;;
966;SDS011;56108;48.730;9.304;2022-07-23T06:25:48;9.67;;;8.80;;
966;SDS011;56108;48.730;9.304;2022-07-23T06:27:57;11.13;;;10.17;;
966;SDS011;56108;48.730;9.304;2022-07-23T06:30:09;9.43;;;8.70;;
966;SDS011;56108;48.730;9.304;2022-07-23T06:32:22;10.20;;;9.43;;
966;SDS011;56108;48.730;9.304;2022-07-23T06:34:30;9.17;;;8.57;;
966;SDS011;56108;48.730;9.304;2022-07-23T06:36:38;10.83;;;9.83;;
966;SDS011;56108;48.730;9.304;2022-07-23T06:38:47;10.10;;;9.27;;
966;SDS011;56108;48.730;9.304;2022-07-23T06:40:55;8.87;;;8.17;;
966;SDS011;56108;48.730;9.304;2022-07-23T06:43:04;9.43;;;8.73;;
966;SDS011;56108;48.730;9.304;2022-07-23T06:45:17;9.73;;;9.00;;
966;SDS011;56108;48.730;9.304;2022-07-23T06:47:26;9.47;;;8.70;;
966;SDS011;56108;48.730;9.304;2022-07-23T06:49:34;10.07;;;9.33;;
966;SDS011;56108;48.730;9.304;2022-07-23T06:51:42;10.40;;;9.63;;
966;SDS011;56108;48.730;9.304;2022-07-23T06:53:51;10.07;;;9.37;;
966;SDS011;56108;48.730;9.304;2022-07-23T06:55:59;10.13;;;9.40;;
966;SDS011;56108;48.730;9.304;2022-07-23T06:58:09;9.83;;;8.93;;
966;SDS011;56108;48.730;9.304;2022-07-23T07:00:21;10.23;;;9.53;;
966;SDS011;56108;48.730;9.304;2022-07-23T07:02:31;9.70;;;8.90;;
966;SDS011;56108;48.730;9.304;2022-07-23T07:04:39;10.60;;;9.70;;
966;SDS011;56108;48.730;9.304;2022-07-23T07:06:47;9.70;;;9.00;;
966;SDS011;56108;48.730;9.304;2022-07-23T07:08:55;9.60;;;8.80;;
966;SDS011;56108;48.730;9.304;2022-07-23T07:11:04;9.70;;;8.90;;
966;SDS011;56108;48.730;9.304;2022-07-23T07:13:13;9.70;;;8.97;;
966;SDS011;56108;48.730;9.304;2022-07-23T07:15:24;9.57;;;8.97;;
966;SDS011;56108;48.730;9.304;2022-07-23T07:17:32;7.83;;;7.33;;
966;SDS011;56108;48.730;9.304;2022-07-23T07:19:41;9.80;;;8.90;;
966;SDS011;56108;48.730;9.304;2022-07-23T07:21:49;8.50;;;7.90;;
966;SDS011;56108;48.730;9.304;2022-07-23T07:23:57;9.73;;;8.93;;
966;SDS011;56108;48.730;9.304;2022-07-23T07:26:06;9.43;;;8.57;;
966;SDS011;56108;48.730;9.304;2022-07-23T07:28:14;9.13;;;8.43;;
966;SDS011;56108;48.730;9.304;2022-07-23T07:30:25;9.23;;;8.53;;
966;SDS011;56108;48.730;9.304;2022-07-23T07:32:38;9.47;;;8.77;;
966;SDS011;56108;48.730;9.304;2022-07-23T07:35:02;8.40;;;7.80;;
966;SDS011;56108;48.730;9.304;2022-07-23T07:37:11;9.00;;;8.20;;
966;SDS011;56108;48.730;9.304;2022-07-23T07:39:20;9.70;;;8.90;;
966;SDS011;56108;48.730;9.304;2022-07-23T07:41:29;8.70;;;8.10;;
966;SDS011;56108;48.730;9.304;2022-07-23T07:43:37;8.87;;;8.20;;
966;SDS011;56108;48.730;9.304;2022-07-23T07:45:48;8.80;;;8.00;;
966;SDS011;56108;48.730;9.304;2022-07-23T07:47:57;9.30;;;8.50;;
966;SDS011;56108;48.730;9.304;2022-07-23T07:50:05;9.33;;;8.73;;
966;SDS011;56108;48.730;9.304;2022-07-23T07:52:15;9.57;;;8.77;;
966;SDS011;56108;48.730;9.304;2022-07-23T07:54:23;8.67;;;7.97;;
966;SDS011;56108;48.730;9.304;2022-07-23T07:56:32;8.30;;;7.80;;
966;SDS011;56108;48.730;9.304;2022-07-23T07:58:40;9.47;;;7.93;;
966;SDS011;56108;48.730;9.304;2022-07-23T08:00:51;7.87;;;7.37;;
966;SDS011;56108;48.730;9.304;2022-07-23T08:03:00;8.00;;;7.50;;
966;SDS011;56108;48.730;9.304;2022-07-23T08:05:09;7.93;;;7.43;;
966;SDS011;56108;48.730;9.304;2022-07-23T08:07:18;7.30;;;6.90;;
966;SDS011;56108;48.730;9.304;2022-07-23T08:09:26;7.73;;;7.13;;
966;SDS011;56108;48.730;9.304;2022-07-23T08:11:34;7.93;;;7.43;;
966;SDS011;56108;48.730;9.304;2022-07-23T08:13:43;8.03;;;7.53;;
966;SDS011;56108;48.730;9.304;2022-07-23T08:15:54;8.60;;;7.90;;
966;SDS011;56108;48.730;9.304;2022-07-23T08:18:03;8.50;;;7.83;;
966;SDS011;56108;48.730;9.304;2022-07-23T08:20:12;8.20;;;7.70;;
966;SDS011;56108;48.730;9.304;2022-07-23T08:22:23;9.23;;;8.47;;
966;SDS011;56108;48.730;9.304;2022-07-23T08:24:31;11.03;;;8.97;;
966;SDS011;56108;48.730;9.304;2022-07-23T08:26:39;8.17;;;7.67;;
966;SDS011;56108;48.730;9.304;2022-07-23T08:28:47;9.07;;;8.27;;
966;SDS011;56108;48.730;9.304;2022-07-23T08:30:58;8.87;;;8.17;;
966;SDS011;56108;48.730;9.304;2022-07-23T08:33:08;8.83;;;8.23;;
966;SDS011;56108;48.730;9.304;2022-07-23T08:35:35;8.97;;;8.20;;
966;SDS011;56108;48.730;9.304;2022-07-23T08:37:45;8.87;;;8.30;;
966;SDS011;56108;48.730;9.304;2022-07-23T08:39:53;9.53;;;8.83;;
966;SDS011;56108;48.730;9.304;2022-07-23T08:42:01;9.03;;;8.40;;
966;SDS011;56108;48.730;9.304;2022-07-23T08:44:09;9.17;;;8.50;;
966;SDS011;56108;48.730;9.304;2022-07-23T08:46:20;9.40;;;8.40;;
966;SDS011;56108;48.730;9.304;2022-07-23T08:48:30;9.70;;;8.90;;
966;SDS011;56108;48.730;9.304;2022-07-23T08:50:43;10.07;;;9.33;;
966;SDS011;56108;48.730;9.304;2022-07-23T08:52:53;8.60;;;8.03;;
966;SDS011;56108;48.730;9.304;2022-07-23T08:55:03;9.60;;;8.90;;
966;SDS011;56108;48.730;9.304;2022-07-23T08:57:12;8.83;;;8.23;;
966;SDS011;56108;48.730;9.304;2022-07-23T08:59:21;8.90;;;8.30;;
966;SDS011;56108;48.730;9.304;2022-07-23T09:01:33;9.50;;;8.80;;
966;SDS011;56108;48.730;9.304;2022-07-23T09:03:41;9.20;;;8.50;;
966;SDS011;56108;48.730;9.304;2022-07-23T09:05:50;9.57;;;8.97;;
966;SDS011;56108;48.730;9.304;2022-07-23T09:08:08;8.87;;;8.37;;
966;SDS011;56108;48.730;9.304;2022-07-23T09:10:18;9.87;;;8.90;;
966;SDS011;56108;48.730;9.304;2022-07-23T09:12:30;8.30;;;7.80;;
966;SDS011;56108;48.730;9.304;2022-07-23T09:14:40;8.83;;;8.23;;
966;SDS011;56108;48.730;9.304;2022-07-23T09:16:54;9.20;;;8.50;;
966;SDS011;56108;48.730;9.304;2022-07-23T09:19:03;8.03;;;7.43;;
966;SDS011;56108;48.730;9.304;2022-07-23T09:21:17;7.90;;;7.40;;
966;SDS011;56108;48.730;9.304;2022-07-23T09:23:35;8.10;;;7.50;;
966;SDS011;56108;48.730;9.304;2022-07-23T09:25:44;7.87;;;7.30;;
966;SDS011;56108;48.730;9.304;2022-07-23T09:27:53;7.50;;;7.00;;
966;SDS011;56108;48.730;9.304;2022-07-23T09:30:05;8.70;;;8.20;;
966;SDS011;56108;48.730;9.304;2022-07-23T09:32:16;8.53;;;7.83;;
966;SDS011;56108;48.730;9.304;2022-07-23T09:34:25;8.17;;;7.60;;
966;SDS011;56108;48.730;9.304;2022-07-23T09:36:37;8.50;;;7.87;;
966;SDS011;56108;48.730;9.304;2022-07-23T09:38:49;8.77;;;8.07;;
966;SDS011;56108;48.730;9.304;2022-07-23T09:41:07;8.10;;;7.60;;
966;SDS011;56108;48.730;9.304;2022-07-23T09:43:25;8.23;;;7.73;;
966;SDS011;56108;48.730;9.304;2022-07-23T09:45:39;7.93;;;7.33;;
966;SDS011;56108;48.730;9.304;2022-07-23T09:47:49;8.00;;;7.50;;
966;SDS011;56108;48.730;9.304;2022-07-23T09:49:58;7.90;;;7.40;;
966;SDS011;56108;48.730;9.304;2022-07-23T09:52:10;7.67;;;7.20;;
966;SDS011;56108;48.730;9.304;2022-07-23T09:54:22;8.70;;;8.10;;
966;SDS011;56108;48.730;9.304;2022-07-23T09:56:37;7.90;;;7.50;;
966;SDS011;56108;48.730;9.304;2022-07-23T09:58:46;8.33;;;7.83;;
966;SDS011;56108;48.730;9.304;2022-07-23T10:01:06;8.33;;;7.83;;
966;SDS011;56108;48.730;9.304;2022-07-23T10:03:19;8.40;;;7.90;;
966;SDS011;56108;48.730;9.304;2022-07-23T10:05:46;8.30;;;7.87;;
966;SDS011;56108;48.730;9.304;2022-07-23T10:08:17;8.40;;;7.90;;
966;SDS011;56108;48.730;9.304;2022-07-23T10:10:46;8.40;;;7.90;;
966;SDS011;56108;48.730;9.304;2022-07-23T10:13:21;8.10;;;7.70;;
966;SDS011;56108;48.730;9.304;2022-07-23T10:15:43;8.80;;;8.30;;
966;SDS011;56108;48.730;9.304;2022-07-23T10:17:51;7.97;;;7.47;;
966;SDS011;56108;48.730;9.304;2022-07-23T10:20:02;7.37;;;6.97;;
966;SDS011;56108;48.730;9.304;2022-07-23T10:22:13;7.93;;;7.40;;
966;SDS011;56108;48.730;9.304;2022-07-23T10:27:11;7.90;;;7.40;;
966;SDS011;56108;48.730;9.304;2022-07-23T10:29:36;8.57;;;8.00;;
966;SDS011;56108;48.730;9.304;2022-07-23T10:31:56;9.20;;;8.70;;
966;SDS011;56108;48.730;9.304;2022-07-23T10:34:12;8.07;;;7.57;;
966;SDS011;56108;48.730;9.304;2022-07-23T10:36:31;8.90;;;8.30;;
966;SDS011;56108;48.730;9.304;2022-07-23T10:38:50;8.47;;;7.93;;
966;SDS011;56108;48.730;9.304;2022-07-23T10:41:03;9.40;;;8.70;;
966;SDS011;56108;48.730;9.304;2022-07-23T10:43:13;9.20;;;8.50;;
966;SDS011;56108;48.730;9.304;2022-07-23T10:45:26;8.17;;;7.67;;
966;SDS011;56108;48.730;9.304;2022-07-23T10:47:36;8.20;;;7.70;;
966;SDS011;56108;48.730;9.304;2022-07-23T10:49:51;8.13;;;7.53;;
966;SDS011;56108;48.730;9.304;2022-07-23T10:54:33;9.37;;;8.67;;
966;SDS011;56108;48.730;9.304;2022-07-23T10:56:51;9.03;;;8.43;;
966;SDS011;56108;48.730;9.304;2022-07-23T10:59:14;8.67;;;7.87;;
966;SDS011;56108;48.730;9.304;2022-07-23T11:01:32;8.20;;;7.63;;
966;SDS011;56108;48.730;9.304;2022-07-23T11:03:42;8.97;;;8.27;;
966;SDS011;56108;48.730;9.304;2022-07-23T11:06:05;9.03;;;8.43;;
966;SDS011;56108;48.730;9.304;2022-07-23T11:08:17;8.37;;;7.87;;
966;SDS011;56108;48.730;9.304;2022-07-23T11:10:33;8.10;;;7.60;;
966;SDS011;56108;48.730;9.304;2022-07-23T11:12:42;9.20;;;8.60;;
966;SDS011;56108;48.730;9.304;2022-07-23T11:17:18;9.07;;;8.57;;
966;SDS011;56108;48.730;9.304;2022-07-23T11:19:27;8.47;;;7.97;;
966;SDS011;56108;48.730;9.304;2022-07-23T11:21:42;8.23;;;7.73;;
966;SDS011;56108;48.730;9.304;2022-07-23T11:24:03;9.40;;;8.70;;
966;SDS011;56108;48.730;9.304;2022-07-23T11:26:28;8.20;;;7.70;;
966;SDS011;56108;48.730;9.304;2022-07-23T11:28:51;8.30;;;7.80;;
966;SDS011;56108;48.730;9.304;2022-07-23T11:30:59;9.10;;;8.50;;
966;SDS011;56108;48.730;9.304;2022-07-23T11:33:24;9.17;;;8.47;;
966;SDS011;56108;48.730;9.304;2022-07-23T11:35:32;8.97;;;8.27;;
966;SDS011;56108;48.730;9.304;2022-07-23T11:37:48;8.90;;;8.20;;
966;SDS011;56108;48.730;9.304;2022-07-23T11:40:02;8.67;;;8.17;;
966;SDS011;56108;48.730;9.304;2022-07-23T11:42:14;9.30;;;8.67;;
966;SDS011;56108;48.730;9.304;2022-07-23T11:44:26;8.10;;;7.60;;
966;SDS011;56108;48.730;9.304;2022-07-23T11:46:34;8.47;;;7.97;;
966;SDS011;56108;48.730;9.304;2022-07-23T11:48:43;9.20;;;8.60;;
966;SDS011;56108;48.730;9.304;2022-07-23T11:50:52;8.33;;;7.80;;
966;SDS011;56108;48.730;9.304;2022-07-23T11:53:01;8.93;;;8.33;;
966;SDS011;56108;48.730;9.304;2022-07-23T11:55:12;8.90;;;8.30;;
966;SDS011;56108;48.730;9.304;2022-07-23T11:57:23;9.00;;;8.30;;
966;SDS011;56108;48.730;9.304;2022-07-23T11:59:35;9.30;;;8.70;;
966;SDS011;56108;48.730;9.304;2022-07-23T12:01:55;9.10;;;8.50;;
966;SDS011;56108;48.730;9.304;2022-07-23T12:04:04;8.80;;;8.20;;
966;SDS011;56108;48.730;9.304;2022-07-23T12:06:14;9.30;;;8.70;;
966;SDS011;56108;48.730;9.304;2022-07-23T12:08:23;9.57;;;8.87;;
966;SDS011;56108;48.730;9.304;2022-07-23T12:10:36;9.13;;;8.53;;
966;SDS011;56108;48.730;9.304;2022-07-23T12:12:52;8.67;;;8.17;;
966;SDS011;56108;48.730;9.304;2022-07-23T12:15:01;8.47;;;7.97;;
966;SDS011;56108;48.730;9.304;2022-07-23T12:17:10;10.93;;;8.70;;
966;SDS011;56108;48.730;9.304;2022-07-23T12:19:18;8.63;;;8.03;;
966;SDS011;56108;48.730;9.304;2022-07-23T12:21:26;8.53;;;7.93;;
966;SDS011;56108;48.730;9.304;2022-07-23T12:23:34;9.20;;;8.50;;
966;SDS011;56108;48.730;9.304;2022-07-23T12:25:46;9.23;;;8.53;;
966;SDS011;56108;48.730;9.304;2022-07-23T12:28:01;9.13;;;8.50;;
966;SDS011;56108;48.730;9.304;2022-07-23T12:30:15;8.57;;;8.07;;
966;SDS011;56108;48.730;9.304;2022-07-23T12:32:27;9.17;;;8.57;;
966;SDS011;56108;48.730;9.304;2022-07-23T12:34:36;9.33;;;8.73;;
966;SDS011;56108;48.730;9.304;2022-07-23T12:36:44;9.17;;;8.47;;
966;SDS011;56108;48.730;9.304;2022-07-23T12:38:52;8.10;;;7.60;;
966;SDS011;56108;48.730;9.304;2022-07-23T12:41:03;9.30;;;8.70;;
966;SDS011;56108;48.730;9.304;2022-07-23T12:43:18;9.73;;;9.00;;
966;SDS011;56108;48.730;9.304;2022-07-23T12:45:27;9.00;;;8.40;;
966;SDS011;56108;48.730;9.304;2022-07-23T12:47:52;9.27;;;8.57;;
966;SDS011;56108;48.730;9.304;2022-07-23T12:50:02;10.63;;;9.83;;
966;SDS011;56108;48.730;9.304;2022-07-23T12:52:15;9.03;;;8.43;;
966;SDS011;56108;48.730;9.304;2022-07-23T12:54:26;9.70;;;9.00;;
966;SDS011;56108;48.730;9.304;2022-07-23T12:56:38;9.50;;;8.80;;
966;SDS011;56108;48.730;9.304;2022-07-23T12:58:53;9.77;;;8.97;;
966;SDS011;56108;48.730;9.304;2022-07-23T13:01:22;10.30;;;9.50;;
966;SDS011;56108;48.730;9.304;2022-07-23T13:03:32;9.63;;;8.93;;
966;SDS011;56108;48.730;9.304;2022-07-23T13:05:42;9.73;;;9.13;;
966;SDS011;56108;48.730;9.304;2022-07-23T13:07:50;9.23;;;8.53;;
966;SDS011;56108;48.730;9.304;2022-07-23T13:10:01;9.20;;;8.60;;
966;SDS011;56108;48.730;9.304;2022-07-23T13:12:12;10.10;;;9.20;;
966;SDS011;56108;48.730;9.304;2022-07-23T13:14:21;9.67;;;8.97;;
966;SDS011;56108;48.730;9.304;2022-07-23T13:16:31;8.67;;;8.17;;
966;SDS011;56108;48.730;9.304;2022-07-23T13:18:41;10.40;;;9.60;;
966;SDS011;56108;48.730;9.304;2022-07-23T13:20:52;9.77;;;9.07;;
966;SDS011;56108;48.730;9.304;2022-07-23T13:23:09;9.47;;;8.87;;
966;SDS011;56108;48.730;9.304;2022-07-23T13:25:17;10.87;;;10.07;;
966;SDS011;56108;48.730;9.304;2022-07-23T13:27:30;10.10;;;9.40;;
966;SDS011;56108;48.730;9.304;2022-07-23T13:29:44;10.30;;;9.50;;
966;SDS011;56108;48.730;9.304;2022-07-23T13:31:52;11.00;;;10.30;;
966;SDS011;56108;48.730;9.304;2022-07-23T13:34:00;10.23;;;9.50;;
966;SDS011;56108;48.730;9.304;2022-07-23T13:36:09;9.77;;;9.17;;
966;SDS011;56108;48.730;9.304;2022-07-23T13:38:18;10.20;;;9.50;;
966;SDS011;56108;48.730;9.304;2022-07-23T13:40:29;10.37;;;9.67;;
966;SDS011;56108;48.730;9.304;2022-07-23T13:42:40;12.30;;;11.30;;